Time;durP1;ratioP1;P1;durP2;ratioP2;P2;SDS_P1;SDS_P2;PMS_P1;PMS_P2;Temp;Humidity;BMP_temperature;BMP_pressure;BME280_temperature;BME280_humidity;BME280_pressure;Samples;Min_cycle;Max_cycle;Signal;HPM_P1;HPM_P2
2021/01/09 04:01:51;;;;;;;5.22;2.22;;;-3.20;82.70;;;;;;5292916;22;87785;-85
2021/01/09 04:04:17;;;;;;;5.80;2.22;;;-3.20;82.60;;;;;;4973757;28;87596;-85
2021/01/09 04:06:42;;;;;;;4.07;2.13;;;-3.20;82.20;;;;;;4954610;28;87348;-85
2021/01/09 04:09:08;;;;;;;5.38;2.42;;;-3.20;83.10;;;;;;4954269;28;86048;-85
2021/01/09 04:11:34;;;;;;;4.60;2.33;;;-3.10;82.80;;;;;;4954332;28;86297;-84
2021/01/09 04:14:01;;;;;;;4.80;2.53;;;-3.20;81.80;;;;;;4968948;28;88668;-84
2021/01/09 04:16:27;;;;;;;5.90;2.58;;;-3.10;83.00;;;;;;4972930;28;87961;-84
2021/01/09 04:18:52;;;;;;;7.40;2.42;;;-3.20;82.40;;;;;;4973058;28;86943;-84
2021/01/09 04:21:18;;;;;;;4.95;2.50;;;-3.20;82.90;;;;;;4972813;28;86265;-84
2021/01/09 04:23:44;;;;;;;5.15;2.83;;;-3.20;83.90;;;;;;4973056;28;87793;-84
2021/01/09 04:26:16;;;;;;;5.47;2.63;;;-3.20;84.20;;;;;;4951479;28;89272;-84
2021/01/09 04:28:42;;;;;;;5.32;2.90;;;-3.30;84.60;;;;;;4953570;28;86843;-83
2021/01/09 04:31:08;;;;;;;5.40;3.10;;;;;;;;;;4947349;28;86434;-83
2021/01/09 04:33:35;;;;;;;6.13;3.17;;;-3.40;85.40;;;;;;4972595;28;87042;-84
2021/01/09 04:36:00;;;;;;;5.30;3.47;;;-3.40;85.60;;;;;;4971449;28;87281;-84
2021/01/09 04:38:26;;;;;;;5.23;2.97;;;-3.40;85.60;;;;;;4953244;28;87800;-84
2021/01/09 04:40:52;;;;;;;5.73;3.13;;;-3.50;85.90;;;;;;4971855;28;87066;-84
2021/01/09 04:43:18;;;;;;;5.85;3.40;;;-3.50;85.90;;;;;;4972775;28;86521;-84
2021/01/09 04:45:45;;;;;;;7.70;3.60;;;-3.50;86.70;;;;;;4969370;28;87260;-84
2021/01/09 04:48:13;;;;;;;5.85;3.30;;;-3.50;86.90;;;;;;4969366;28;86345;-83
2021/01/09 04:50:40;;;;;;;7.75;3.28;;;-3.60;87.80;;;;;;4971930;28;86275;-85
2021/01/09 04:53:07;;;;;;;7.60;3.17;;;-3.70;88.40;;;;;;4971483;28;87060;-84
2021/01/09 04:55:35;;;;;;;8.65;3.92;;;-3.80;89.80;;;;;;4985064;28;86215;-83
2021/01/09 04:58:02;;;;;;;6.15;3.85;;;-3.80;90.40;;;;;;4970855;28;86680;-84
2021/01/09 05:00:28;;;;;;;9.30;4.10;;;-3.90;91.00;;;;;;4988729;28;86426;-84
2021/01/09 05:02:54;;;;;;;8.07;3.67;;;;;;;;;;4971093;28;87492;-83
2021/01/09 05:05:20;;;;;;;7.80;3.58;;;-3.90;91.20;;;;;;4969457;28;87996;-84
2021/01/09 05:07:46;;;;;;;6.77;3.67;;;-4.00;91.60;;;;;;4977150;28;86891;-82
2021/01/09 05:10:12;;;;;;;5.80;3.85;;;-4.00;91.50;;;;;;4971849;28;86938;-84
2021/01/09 05:12:40;;;;;;;9.37;4.67;;;-4.00;91.70;;;;;;4971960;28;87059;-83
2021/01/09 05:15:06;;;;;;;8.17;4.10;;;-4.10;92.30;;;;;;4972303;28;86812;-84
2021/01/09 05:17:34;;;;;;;7.37;4.30;;;-4.10;92.70;;;;;;4970844;28;87185;-82
2021/01/09 05:20:01;;;;;;;12.30;4.33;;;-4.10;92.70;;;;;;4972263;28;86041;-84
2021/01/09 05:22:27;;;;;;;9.93;4.30;;;-4.20;92.90;;;;;;4951381;28;91488;-83
2021/01/09 05:24:53;;;;;;;7.27;4.20;;;-4.10;93.00;;;;;;4972805;28;88593;-84
2021/01/09 05:27:23;;;;;;;5.73;3.60;;;-4.20;93.10;;;;;;4974423;28;87215;-85
2021/01/09 05:29:54;;;;;;;7.30;3.13;;;-4.20;93.00;;;;;;4953108;28;86872;-84
2021/01/09 05:32:22;;;;;;;7.38;3.55;;;-4.10;92.90;;;;;;4971093;28;86455;-84
2021/01/09 05:34:53;;;;;;;11.63;4.57;;;-4.20;93.10;;;;;;4964928;28;87063;-83
2021/01/09 05:37:24;;;;;;;8.32;4.28;;;-4.20;93.20;;;;;;4971854;28;86913;-84
2021/01/09 05:39:50;;;;;;;;;;;-4.20;93.50;;;;;;4974830;28;86830;-84
2021/01/09 05:42:18;;;;;;;8.80;3.93;;;-4.10;93.70;;;;;;4989394;28;86853;-84
2021/01/09 05:44:45;;;;;;;10.77;4.93;;;-4.20;94.20;;;;;;4953961;28;90091;-83
2021/01/09 05:47:11;;;;;;;11.17;5.67;;;-4.30;95.80;;;;;;4984610;28;86897;-84
2021/01/09 05:49:42;;;;;;;12.40;5.37;;;-4.30;97.60;;;;;;4970004;28;86828;-84
2021/01/09 05:52:09;;;;;;;9.15;4.93;;;-4.40;98.40;;;;;;4978408;28;88377;-84
2021/01/09 05:54:36;;;;;;;11.17;5.10;;;-4.30;98.70;;;;;;4970085;28;88724;-85
2021/01/09 05:57:15;;;;;;;9.60;5.30;;;-4.40;99.40;;;;;;4959301;28;86848;-82
2021/01/09 05:59:42;;;;;;;12.00;5.43;;;-4.30;99.70;;;;;;4967148;28;86288;-83
2021/01/09 06:02:09;;;;;;;13.87;5.67;;;-4.40;99.60;;;;;;4950495;28;87426;-83
2021/01/09 06:04:41;;;;;;;11.97;4.93;;;-4.40;99.90;;;;;;4976950;28;86864;-86
2021/01/09 06:07:21;;;;;;;11.90;4.80;;;-4.40;99.90;;;;;;4965923;28;86053;-87
2021/01/09 06:10:07;;;;;;;12.53;5.47;;;-4.50;99.90;;;;;;4974069;28;86070;-86
2021/01/09 06:12:37;;;;;;;13.37;5.07;;;-4.40;99.90;;;;;;4960770;28;88861;-86
2021/01/09 06:15:06;;;;;;;8.00;5.07;;;-4.50;99.90;;;;;;4970964;28;86917;-86
2021/01/09 06:17:35;;;;;;;8.63;4.27;;;-4.50;99.90;;;;;;4959747;28;87381;-86
2021/01/09 06:20:02;;;;;;;8.37;4.20;;;-4.50;99.90;;;;;;4948499;28;87083;-86
2021/01/09 06:22:27;;;;;;;8.37;4.17;;;-4.50;99.90;;;;;;4955968;28;87646;-87
2021/01/09 06:24:54;;;;;;;11.73;3.83;;;-4.50;99.90;;;;;;4972633;28;88173;-85
2021/01/09 06:27:30;;;;;;;8.23;3.73;;;-4.60;99.90;;;;;;4961118;28;86637;-86
2021/01/09 06:30:03;;;;;;;9.27;4.40;;;-4.60;99.90;;;;;;4953129;28;87156;-86
2021/01/09 06:32:33;;;;;;;8.93;3.60;;;-4.60;99.90;;;;;;4957554;28;87214;-86
2021/01/09 06:35:03;;;;;;;9.67;5.13;;;-4.60;99.90;;;;;;4972525;28;87118;-86
2021/01/09 06:37:29;;;;;;;13.50;4.27;;;-4.60;99.90;;;;;;4963804;28;86773;-86
2021/01/09 06:39:55;;;;;;;8.73;4.40;;;-4.60;99.90;;;;;;4979501;28;86665;-86
2021/01/09 06:42:22;;;;;;;8.37;3.90;;;-4.60;99.90;;;;;;4971625;28;88409;-86
2021/01/09 06:44:52;;;;;;;10.50;4.60;;;-4.60;99.90;;;;;;4972880;28;87663;-85
2021/01/09 06:47:29;;;;;;;11.60;4.53;;;-4.70;99.90;;;;;;4977462;28;86617;-86
2021/01/09 06:50:15;;;;;;;9.83;4.50;;;-4.70;99.90;;;;;;4990104;28;86247;-84
2021/01/09 06:52:53;;;;;;;11.87;4.53;;;-4.70;99.60;;;;;;4984674;28;87761;-85
2021/01/09 06:55:37;;;;;;;9.33;4.90;;;-4.70;99.80;;;;;;4997997;28;87530;-85
2021/01/09 06:58:07;;;;;;;9.23;3.90;;;-4.70;99.60;;;;;;4953611;28;86956;-86
2021/01/09 07:00:33;;;;;;;9.63;4.43;;;-4.70;99.60;;;;;;4976651;28;85493;-86
2021/01/09 07:03:14;;;;;;;10.57;4.60;;;-4.70;99.50;;;;;;4984551;28;86872;-85
2021/01/09 07:05:44;;;;;;;10.03;4.93;;;-4.70;99.80;;;;;;4983192;28;87555;-87
2021/01/09 07:08:17;;;;;;;9.70;4.47;;;-4.70;99.90;;;;;;4973522;28;87441;-86
2021/01/09 07:11:02;;;;;;;11.33;4.23;;;-4.70;99.40;;;;;;4954698;28;86288;-86
2021/01/09 07:13:29;;;;;;;12.43;4.83;;;-4.70;99.60;;;;;;4959226;28;87738;-86
2021/01/09 07:16:09;;;;;;;9.60;4.30;;;-4.70;99.90;;;;;;4961649;28;88006;-85
2021/01/09 07:18:49;;;;;;;8.60;4.13;;;-4.70;99.90;;;;;;4973096;28;86260;-86
2021/01/09 07:21:19;;;;;;;5.13;3.77;;;-4.70;99.90;;;;;;4958739;28;87896;-86
2021/01/09 07:23:51;;;;;;;10.40;4.50;;;-4.70;99.90;;;;;;4982422;28;87778;-85
2021/01/09 07:26:18;;;;;;;7.23;3.70;;;-4.70;99.90;;;;;;4973161;28;87396;-85
2021/01/09 07:28:46;;;;;;;9.27;3.33;;;-4.70;99.90;;;;;;4976328;28;86586;-85
2021/01/09 07:31:13;;;;;;;7.73;3.77;;;-4.60;99.90;;;;;;4975805;28;86961;-85
2021/01/09 07:33:44;;;;;;;8.47;3.80;;;-4.60;99.90;;;;;;4971732;28;88678;-86
2021/01/09 07:36:13;;;;;;;6.25;3.47;;;-4.50;99.80;;;;;;4956250;28;90494;-85
2021/01/09 07:38:46;;;;;;;9.03;3.70;;;-4.50;99.90;;;;;;4967748;28;86184;-85
2021/01/09 07:41:31;;;;;;;6.80;3.87;;;-4.40;99.40;;;;;;4969734;28;86983;-86
2021/01/09 07:44:34;;;;;;;8.43;4.27;;;-4.40;98.90;;;;;;4978527;28;87020;-85
2021/01/09 07:47:05;;;;;;;7.60;4.20;;;-4.30;99.00;;;;;;4900046;28;87713;-86
2021/01/09 07:49:36;;;;;;;10.17;4.57;;;-4.30;98.20;;;;;;4915761;28;87139;-86
2021/01/09 07:52:04;;;;;;;6.73;3.53;;;-4.10;97.40;;;;;;4968290;28;86192;-87
2021/01/09 07:54:39;;;;;;;8.80;3.33;;;-4.00;97.00;;;;;;4985841;28;87030;-86
2021/01/09 07:57:17;;;;;;;9.10;5.17;;;-3.90;96.00;;;;;;4965011;28;90363;-86
2021/01/09 07:59:55;;;;;;;10.67;5.30;;;-3.90;95.60;;;;;;4979338;28;87773;-86
2021/01/09 08:02:46;;;;;;;9.30;4.60;;;-3.80;94.90;;;;;;4943859;28;87062;-87
2021/01/09 08:05:21;;;;;;;15.43;6.97;;;-3.70;94.70;;;;;;4981327;28;87798;-86
2021/01/09 08:07:56;;;;;;;10.00;5.27;;;-3.60;94.80;;;;;;4949526;28;87748;-86
2021/01/09 08:10:30;;;;;;;15.10;6.50;;;-3.50;94.40;;;;;;4972043;28;86758;-87
2021/01/09 08:13:06;;;;;;;13.10;5.90;;;-3.40;94.00;;;;;;4973764;28;86764;-87
2021/01/09 08:15:35;;;;;;;10.53;5.23;;;-3.30;93.40;;;;;;4953930;28;88069;-86
2021/01/09 08:18:04;;;;;;;11.65;5.00;;;-3.20;93.70;;;;;;4959198;28;88878;-87
2021/01/09 08:20:35;;;;;;;9.07;4.77;;;-3.10;92.10;;;;;;4955505;28;86754;-88
2021/01/09 08:23:05;;;;;;;10.30;5.23;;;-3.00;91.80;;;;;;4957473;28;87049;-88
2021/01/09 08:25:34;;;;;;;19.98;6.97;;;-3.00;91.60;;;;;;4972831;28;88268;-86
2021/01/09 08:28:02;;;;;;;12.32;6.18;;;-2.90;91.80;;;;;;4960307;28;88270;-86
2021/01/09 08:30:32;;;;;;;11.07;4.60;;;-2.90;92.00;;;;;;4974705;28;86441;-86
2021/01/09 08:33:12;;;;;;;13.93;5.82;;;-2.70;91.40;;;;;;4955224;28;87043;-86
2021/01/09 08:35:49;;;;;;;8.23;4.43;;;-2.30;90.40;;;;;;4973675;28;87633;-86
2021/01/09 08:38:27;;;;;;;9.93;5.70;;;-2.10;89.40;;;;;;4960057;28;87953;-86
2021/01/09 08:40:59;;;;;;;10.73;5.28;;;-1.80;88.20;;;;;;4966685;28;86259;-87
2021/01/09 08:43:26;;;;;;;12.02;4.35;;;-1.40;85.20;;;;;;4950071;28;86274;-84
2021/01/09 08:45:53;;;;;;;9.10;4.78;;;-1.00;82.90;;;;;;4972136;28;87724;-83
2021/01/09 08:48:24;;;;;;;11.77;6.13;;;-0.60;81.80;;;;;;4981021;28;87189;-85
2021/01/09 08:50:57;;;;;;;;;;;0.00;79.80;;;;;;4973777;28;88007;-85
2021/01/09 08:53:24;;;;;;;7.22;3.92;;;0.50;75.80;;;;;;4972737;28;87024;-86
2021/01/09 08:55:55;;;;;;;11.02;5.35;;;0.90;73.90;;;;;;4982773;28;87560;-84
2021/01/09 08:58:21;;;;;;;11.65;6.65;;;1.10;71.40;;;;;;4964851;28;88003;-84
2021/01/09 09:00:47;;;;;;;10.02;7.03;;;0.80;81.80;;;;;;4968182;28;86328;-84
2021/01/09 09:03:17;;;;;;;10.45;5.80;;;0.90;72.80;;;;;;4978530;28;87060;-85
2021/01/09 09:05:44;;;;;;;11.65;6.15;;;1.10;72.50;;;;;;4973002;28;87486;-85
2021/01/09 09:08:13;;;;;;;10.07;6.20;;;1.10;70.80;;;;;;4982779;28;88669;-84
2021/01/09 09:10:40;;;;;;;14.93;7.32;;;1.10;72.30;;;;;;4970367;28;86944;-86
2021/01/09 09:13:19;;;;;;;38.58;11.75;;;1.00;72.40;;;;;;4976858;28;87037;-83
2021/01/09 09:15:48;;;;;;;13.65;6.63;;;1.00;71.70;;;;;;4970973;28;88376;-84
2021/01/09 09:18:15;;;;;;;26.85;7.72;;;0.80;71.50;;;;;;4976520;28;87339;-85
2021/01/09 09:20:46;;;;;;;19.90;7.80;;;0.60;71.70;;;;;;4953763;28;86242;-84
2021/01/09 09:23:15;;;;;;;14.77;6.60;;;0.80;72.10;;;;;;4971189;28;87167;-86
2021/01/09 09:25:42;;;;;;;16.80;6.20;;;;;;;;;;4976081;28;87791;-85
2021/01/09 09:28:08;;;;;;;11.57;6.03;;;;;;;;;;4975780;28;87037;-85
2021/01/09 09:30:45;;;;;;;14.60;7.40;;;1.10;71.40;;;;;;4970389;28;86681;-85
2021/01/09 09:33:13;;;;;;;11.23;6.50;;;1.20;71.70;;;;;;4957484;28;85495;-82
2021/01/09 09:35:40;;;;;;;10.05;5.28;;;1.20;72.10;;;;;;4980119;28;87670;-85
2021/01/09 09:38:10;;;;;;;10.40;7.10;;;1.50;69.60;;;;;;4990902;28;86935;-83
2021/01/09 09:40:38;;;;;;;11.70;6.57;;;1.60;69.80;;;;;;4984763;28;87166;-84
2021/01/09 09:43:20;;;;;;;7.05;4.07;;;1.90;67.60;;;;;;4976318;28;86307;-84
2021/01/09 09:46:04;;;;;;;15.52;5.50;;;1.90;67.00;;;;;;4975301;28;87354;-86
2021/01/09 09:48:37;;;;;;;9.30;3.50;;;2.00;66.10;;;;;;4978255;28;86949;-83
2021/01/09 09:51:10;;;;;;;9.45;4.95;;;2.40;63.10;;;;;;4981352;28;86824;-83
2021/01/09 09:53:42;;;;;;;8.65;4.80;;;2.20;62.40;;;;;;4982208;28;86643;-83
2021/01/09 09:56:12;;;;;;;6.60;4.25;;;2.40;60.30;;;;;;4959904;28;89762;-85
2021/01/09 09:58:38;;;;;;;6.88;4.55;;;;;;;;;;4975943;28;87523;-84
2021/01/09 10:01:22;;;;;;;10.98;4.53;;;2.90;59.00;;;;;;4953818;28;86431;-84
2021/01/09 10:03:54;;;;;;;7.65;3.97;;;2.90;56.80;;;;;;4974525;28;86874;-83
2021/01/09 10:06:20;;;;;;;5.78;3.42;;;3.20;57.70;;;;;;4964094;28;88618;-84
2021/01/09 10:08:46;;;;;;;8.35;4.68;;;;;;;;;;4969114;28;87243;-85
2021/01/09 10:11:12;;;;;;;5.85;3.15;;;3.30;57.80;;;;;;4955135;28;86706;-85
2021/01/09 10:13:38;;;;;;;9.65;5.20;;;;;;;;;;4973698;28;86235;-83
2021/01/09 10:16:04;;;;;;;4.70;3.42;;;3.20;57.80;;;;;;4977064;28;87463;-83
2021/01/09 10:18:32;;;;;;;9.07;3.85;;;3.40;57.90;;;;;;4972519;28;89035;-83
2021/01/09 10:20:58;;;;;;;6.15;4.63;;;3.90;58.10;;;;;;4974048;28;86341;-83
2021/01/09 10:23:25;;;;;;;5.50;3.75;;;3.30;56.10;;;;;;4970688;28;86181;-86
2021/01/09 10:25:51;;;;;;;8.52;4.18;;;3.30;57.10;;;;;;4973353;28;87271;-85
2021/01/09 10:28:17;;;;;;;13.70;3.90;;;3.80;56.40;;;;;;4972909;28;88287;-87
2021/01/09 10:30:46;;;;;;;7.97;3.78;;;4.30;54.30;;;;;;4955861;28;87868;-85
2021/01/09 10:33:12;;;;;;;7.82;5.20;;;;;;;;;;4972346;28;87097;-83
2021/01/09 10:35:39;;;;;;;10.05;5.43;;;;;;;;;;4972169;28;87488;-84
2021/01/09 10:38:05;;;;;;;9.88;5.45;;;;;;;;;;4970761;28;88337;-87
2021/01/09 10:40:31;;;;;;;8.75;5.05;;;;;;;;;;4967716;28;86988;-86
2021/01/09 10:42:57;;;;;;;7.95;5.15;;;;;;;;;;4960522;28;87136;-85
2021/01/09 10:45:23;;;;;;;6.53;3.75;;;6.10;49.00;;;;;;4964994;28;88118;-87
2021/01/09 10:47:49;;;;;;;6.90;4.70;;;6.70;47.00;;;;;;4974280;28;87280;-84
2021/01/09 10:50:15;;;;;;;7.38;5.28;;;5.90;47.70;;;;;;4981627;28;86732;-85
2021/01/09 10:52:41;;;;;;;12.80;5.88;;;;;;;;;;4952126;28;86544;-82
2021/01/09 10:55:07;;;;;;;7.32;5.07;;;;;;;;;;4980272;28;87972;-84
2021/01/09 10:57:33;;;;;;;6.45;5.53;;;;;;;;;;4966830;28;87820;-84
2021/01/09 10:59:59;;;;;;;14.23;8.45;;;5.70;51.70;;;;;;4971711;28;86651;-83
2021/01/09 11:02:25;;;;;;;12.35;5.82;;;5.60;50.80;;;;;;4978895;28;86925;-83
2021/01/09 11:04:53;;;;;;;9.82;5.30;;;5.80;49.90;;;;;;4972222;28;87128;-83
2021/01/09 11:07:19;;;;;;;11.18;5.20;;;;;;;;;;4969110;28;87806;-84
2021/01/09 11:09:45;;;;;;;9.95;6.53;;;5.50;49.20;;;;;;4974224;28;87011;-83
2021/01/09 11:12:11;;;;;;;6.53;4.93;;;5.80;50.70;;;;;;4973728;28;85558;-84
2021/01/09 11:14:37;;;;;;;8.70;5.47;;;5.50;48.00;;;;;;4983364;28;86511;-83
2021/01/09 11:17:02;;;;;;;7.88;4.60;;;5.60;49.10;;;;;;4973520;28;87392;-83
2021/01/09 11:19:29;;;;;;;8.25;5.55;;;;;;;;;;4972856;28;87516;-83
2021/01/09 11:22:00;;;;;;;10.52;6.85;;;7.20;47.30;;;;;;4973066;28;87067;-85
2021/01/09 11:24:35;;;;;;;14.68;7.18;;;7.20;48.30;;;;;;4973951;28;86918;-83
2021/01/09 11:27:02;;;;;;;9.80;5.78;;;8.20;46.00;;;;;;4973306;28;86841;-84
2021/01/09 11:29:28;;;;;;;7.20;5.63;;;8.40;45.50;;;;;;4973620;28;86897;-83
2021/01/09 11:31:59;;;;;;;7.45;5.63;;;8.70;44.80;;;;;;4982107;28;86892;-84
2021/01/09 11:34:25;;;;;;;10.17;5.83;;;8.80;43.80;;;;;;4961705;28;86959;-83
2021/01/09 11:36:51;;;;;;;8.52;6.03;;;9.20;43.00;;;;;;4972759;28;87946;-84
2021/01/09 11:39:16;;;;;;;6.93;5.35;;;9.30;43.00;;;;;;4972856;28;86467;-83
2021/01/09 11:41:42;;;;;;;9.73;5.40;;;9.60;42.30;;;;;;4971929;28;87265;-84
2021/01/09 11:44:08;;;;;;;12.07;6.22;;;9.60;43.00;;;;;;4972592;28;88182;-84
2021/01/09 11:46:34;;;;;;;9.23;5.65;;;10.00;42.50;;;;;;4974664;28;87214;-84
2021/01/09 11:49:00;;;;;;;9.40;5.75;;;10.20;42.00;;;;;;4971011;28;86564;-85
2021/01/09 11:51:25;;;;;;;10.38;5.63;;;10.50;40.80;;;;;;4954312;28;86958;-83
2021/01/09 11:53:52;;;;;;;9.10;6.13;;;10.40;40.90;;;;;;4973278;28;86848;-84
2021/01/09 11:56:24;;;;;;;11.20;6.40;;;10.30;40.80;;;;;;4972145;28;87232;-85
2021/01/09 11:58:50;;;;;;;10.20;6.22;;;10.60;41.30;;;;;;4972492;28;86780;-83
2021/01/09 12:01:16;;;;;;;8.10;5.95;;;11.10;39.90;;;;;;4964804;28;86382;-83
2021/01/09 12:03:41;;;;;;;9.32;6.13;;;11.50;40.70;;;;;;4934895;28;89324;-85
2021/01/09 12:06:07;;;;;;;8.55;5.95;;;11.90;39.00;;;;;;4953373;28;86948;-84
2021/01/09 12:08:34;;;;;;;7.03;5.32;;;12.10;38.30;;;;;;4951551;28;87935;-84
2021/01/09 12:11:00;;;;;;;7.90;5.80;;;12.30;37.50;;;;;;4954660;28;86822;-84
2021/01/09 12:13:25;;;;;;;10.80;6.75;;;12.70;37.10;;;;;;4945973;28;86992;-84
2021/01/09 12:15:51;;;;;;;8.40;6.18;;;13.10;37.60;;;;;;4947239;28;87439;-85
2021/01/09 12:18:19;;;;;;;9.43;6.03;;;13.40;35.40;;;;;;4929033;28;86908;-85
2021/01/09 12:20:50;;;;;;;8.30;5.80;;;14.00;36.20;;;;;;4954508;28;86900;-84
2021/01/09 12:23:19;;;;;;;8.20;6.72;;;14.70;35.50;;;;;;4953728;28;87741;-85
2021/01/09 12:25:46;;;;;;;7.53;5.32;;;15.20;33.40;;;;;;4954759;28;86715;-84
2021/01/09 12:28:12;;;;;;;7.82;5.70;;;15.60;34.00;;;;;;4948087;28;86879;-86
2021/01/09 12:30:38;;;;;;;8.57;5.80;;;15.40;33.60;;;;;;4954074;28;86874;-84
2021/01/09 12:33:04;;;;;;;7.63;6.18;;;15.00;34.00;;;;;;4943410;28;88725;-85
2021/01/09 12:35:31;;;;;;;6.18;5.57;;;14.40;34.60;;;;;;4936091;28;89269;-85
2021/01/09 12:37:56;;;;;;;7.00;4.88;;;13.60;35.00;;;;;;4928699;28;87636;-85
2021/01/09 12:40:22;;;;;;;10.63;6.60;;;13.00;36.00;;;;;;4953262;28;86972;-85
2021/01/09 12:42:50;;;;;;;9.95;6.70;;;12.80;36.70;;;;;;4951923;28;87030;-85
2021/01/09 12:45:16;;;;;;;9.05;7.45;;;12.40;35.80;;;;;;4950456;28;86504;-84
2021/01/09 12:47:45;;;;;;;8.65;7.47;;;11.60;38.00;;;;;;4951358;28;86219;-84
2021/01/09 12:50:11;;;;;;;9.63;6.88;;;11.10;38.70;;;;;;4947603;28;86001;-84
2021/01/09 12:52:37;;;;;;;8.90;6.78;;;10.70;39.80;;;;;;4950506;28;87285;-84
2021/01/09 12:55:03;;;;;;;8.65;6.75;;;10.40;40.10;;;;;;4951107;28;87058;-84
2021/01/09 12:57:28;;;;;;;9.38;6.90;;;9.90;41.50;;;;;;4944721;28;88202;-84
2021/01/09 12:59:54;;;;;;;7.65;6.53;;;9.80;41.80;;;;;;4936992;28;86796;-84
2021/01/09 13:02:20;;;;;;;10.48;5.53;;;9.50;42.10;;;;;;4959278;28;87009;-84
2021/01/09 13:04:45;;;;;;;9.00;6.13;;;9.40;42.70;;;;;;4965498;28;86905;-84
2021/01/09 13:07:11;;;;;;;8.80;6.32;;;9.20;43.10;;;;;;4970926;28;86847;-84
2021/01/09 13:09:37;;;;;;;10.43;7.20;;;8.90;43.80;;;;;;4951880;28;86866;-84
2021/01/09 13:12:06;;;;;;;9.88;6.22;;;9.30;43.00;;;;;;4970393;28;87666;-83
2021/01/09 13:14:32;;;;;;;10.23;7.60;;;9.30;43.50;;;;;;4971514;28;87526;-82
2021/01/09 13:16:58;;;;;;;10.10;7.32;;;9.60;43.90;;;;;;4971998;28;86557;-83
2021/01/09 13:19:25;;;;;;;9.93;7.30;;;10.10;43.30;;;;;;4964034;28;86731;-83
2021/01/09 13:21:57;;;;;;;12.25;7.60;;;10.50;42.90;;;;;;4951919;28;89725;-84
2021/01/09 13:24:26;;;;;;;9.98;8.05;;;10.80;42.50;;;;;;4969942;28;87986;-84
2021/01/09 13:26:52;;;;;;;12.25;8.55;;;10.90;42.70;;;;;;4974295;28;86591;-84
2021/01/09 13:29:19;;;;;;;10.73;7.45;;;10.80;42.60;;;;;;4968266;28;87104;-80
2021/01/09 13:31:44;;;;;;;10.57;6.93;;;10.90;42.90;;;;;;4967471;28;87691;-83
2021/01/09 13:34:11;;;;;;;10.68;8.43;;;11.00;43.50;;;;;;4969241;28;86981;-83
2021/01/09 13:36:41;;;;;;;9.23;7.55;;;11.40;42.90;;;;;;4980136;28;86928;-82
2021/01/09 13:39:08;;;;;;;10.02;7.80;;;11.70;42.50;;;;;;4976408;28;86181;-83
2021/01/09 13:41:35;;;;;;;9.90;7.47;;;11.90;41.70;;;;;;4975398;28;86648;-84
2021/01/09 13:44:02;;;;;;;10.32;7.13;;;12.10;41.80;;;;;;4972585;28;86987;-84
2021/01/09 13:46:29;;;;;;;9.55;7.28;;;12.20;41.20;;;;;;4983147;28;87551;-84
2021/01/09 13:48:56;;;;;;;10.90;7.15;;;11.90;41.50;;;;;;4966529;28;86989;-84
2021/01/09 13:51:27;;;;;;;11.00;7.65;;;11.50;42.00;;;;;;4969734;28;87118;-81
2021/01/09 13:53:53;;;;;;;8.98;6.63;;;11.10;42.60;;;;;;4963302;28;86753;-83
2021/01/09 13:56:19;;;;;;;10.18;7.15;;;10.90;43.40;;;;;;4969615;28;87017;-85
2021/01/09 13:58:48;;;;;;;11.85;7.53;;;10.60;43.80;;;;;;4973891;28;86770;-84
2021/01/09 14:01:21;;;;;;;17.17;11.00;;;10.30;44.40;;;;;;4986966;28;87404;-81
2021/01/09 14:03:46;;;;;;;15.45;9.70;;;10.10;45.00;;;;;;4991849;28;86324;-81
2021/01/09 14:06:16;;;;;;;14.00;8.50;;;9.80;45.50;;;;;;4981110;28;86166;-81
2021/01/09 14:08:45;;;;;;;11.82;8.40;;;9.50;46.10;;;;;;4979577;28;86545;-84
2021/01/09 14:11:12;;;;;;;10.85;8.02;;;9.70;46.40;;;;;;4967222;28;88666;-84
2021/01/09 14:13:38;;;;;;;11.73;7.93;;;9.50;46.60;;;;;;4969140;28;89181;-83
2021/01/09 14:16:04;;;;;;;10.57;8.15;;;9.30;46.90;;;;;;4980922;28;86890;-80
2021/01/09 14:18:30;;;;;;;10.98;6.90;;;9.40;47.00;;;;;;4973586;28;86892;-79
2021/01/09 14:20:56;;;;;;;11.43;7.65;;;9.40;47.20;;;;;;4964090;28;86955;-83
2021/01/09 14:23:23;;;;;;;10.15;7.43;;;9.30;47.50;;;;;;4971871;28;87312;-83
2021/01/09 14:25:55;;;;;;;9.10;7.10;;;9.50;47.20;;;;;;4971617;28;86698;-83
2021/01/09 14:28:23;;;;;;;14.70;8.20;;;9.20;47.90;;;;;;4979954;28;86331;-84
2021/01/09 14:30:49;;;;;;;12.18;7.88;;;9.10;48.10;;;;;;4970371;28;87265;-83
2021/01/09 14:33:18;;;;;;;11.85;7.15;;;9.00;48.00;;;;;;4974452;28;87013;-82
2021/01/09 14:35:46;;;;;;;9.23;6.90;;;8.80;48.50;;;;;;4971230;28;88012;-83
2021/01/09 14:38:11;;;;;;;12.35;7.82;;;8.20;49.90;;;;;;4967870;28;86244;-83
2021/01/09 14:40:37;;;;;;;10.68;7.53;;;8.00;50.30;;;;;;4947139;28;87825;-84
2021/01/09 14:43:04;;;;;;;10.90;6.97;;;7.70;51.50;;;;;;4965353;28;88356;-80
2021/01/09 14:45:29;;;;;;;11.80;7.80;;;7.50;51.90;;;;;;4965543;28;86354;-80
2021/01/09 14:47:56;;;;;;;11.70;7.60;;;7.30;52.80;;;;;;4971404;28;86302;-79
2021/01/09 14:50:22;;;;;;;12.07;8.77;;;6.60;54.10;;;;;;4957329;28;87151;-80
2021/01/09 14:52:48;;;;;;;14.52;9.57;;;6.50;54.60;;;;;;4974252;28;86370;-79
2021/01/09 14:55:14;;;;;;;15.82;10.20;;;6.30;55.50;;;;;;4958062;28;86882;-79
2021/01/09 14:57:40;;;;;;;11.48;8.30;;;6.00;55.90;;;;;;4973127;28;86761;-79
2021/01/09 15:00:06;;;;;;;9.95;7.57;;;5.80;56.40;;;;;;4966981;28;87631;-79
2021/01/09 15:02:32;;;;;;;14.90;9.00;;;5.40;58.00;;;;;;4960550;28;89345;-79
2021/01/09 15:04:57;;;;;;;16.48;8.68;;;5.10;58.10;;;;;;4973841;28;86819;-79
2021/01/09 15:07:23;;;;;;;13.23;8.98;;;4.90;58.80;;;;;;4979287;28;86903;-79
2021/01/09 15:09:50;;;;;;;15.10;9.40;;;4.70;58.90;;;;;;4977743;28;86929;-79
2021/01/09 15:12:17;;;;;;;14.63;9.52;;;4.40;60.10;;;;;;4973555;28;87701;-79
2021/01/09 15:14:44;;;;;;;15.10;8.70;;;4.20;62.10;;;;;;4965619;28;86807;-80
2021/01/09 15:17:09;;;;;;;14.10;8.93;;;3.90;62.50;;;;;;4967916;28;86141;-79
2021/01/09 15:19:37;;;;;;;13.18;8.40;;;3.60;63.50;;;;;;4965029;28;86602;-81
2021/01/09 15:22:02;;;;;;;13.25;8.02;;;3.30;65.70;;;;;;4964392;28;87014;-80
2021/01/09 15:24:28;;;;;;;14.13;8.40;;;3.10;67.10;;;;;;4962320;28;87975;-79
2021/01/09 15:26:54;;;;;;;14.05;7.95;;;3.00;67.00;;;;;;4952202;28;86803;-79
2021/01/09 15:29:19;;;;;;;11.63;8.18;;;2.90;68.20;;;;;;4977010;28;86801;-79
2021/01/09 15:31:45;;;;;;;14.43;8.63;;;2.80;68.20;;;;;;4974187;28;87007;-79
2021/01/09 15:34:11;;;;;;;18.38;9.95;;;2.60;68.50;;;;;;4973419;28;86633;-79
2021/01/09 15:36:41;;;;;;;19.58;9.75;;;2.50;69.60;;;;;;4972778;28;86252;-78
2021/01/09 15:39:09;;;;;;;27.15;10.80;;;2.40;69.20;;;;;;4970547;28;87815;-79
2021/01/09 15:41:35;;;;;;;19.83;9.93;;;2.30;69.30;;;;;;4975078;28;86920;-80
2021/01/09 15:44:01;;;;;;;18.45;9.85;;;2.20;69.20;;;;;;4980896;28;86882;-81
2021/01/09 15:46:26;;;;;;;17.63;9.15;;;2.20;70.20;;;;;;4981264;28;87476;-79
2021/01/09 15:48:52;;;;;;;19.50;10.48;;;2.00;69.90;;;;;;4977190;28;88682;-80
2021/01/09 15:51:18;;;;;;;22.73;11.77;;;1.90;73.70;;;;;;4973281;28;87943;-80
2021/01/09 15:53:45;;;;;;;21.35;11.40;;;1.80;73.70;;;;;;4965666;28;86656;-81
2021/01/09 15:56:15;;;;;;;21.50;11.05;;;1.80;72.50;;;;;;4963366;28;86911;-81
2021/01/09 15:58:42;;;;;;;23.08;12.02;;;1.70;72.30;;;;;;4966144;28;87837;-80
2021/01/09 16:01:10;;;;;;;23.60;12.32;;;1.70;73.10;;;;;;4964711;28;87480;-81
2021/01/09 16:03:36;;;;;;;24.73;11.80;;;1.60;72.60;;;;;;4971698;28;87022;-81
2021/01/09 16:06:06;;;;;;;24.42;11.85;;;1.30;73.30;;;;;;4967692;28;86170;-82
2021/01/09 16:08:32;;;;;;;28.17;12.70;;;;;;;;;;4967610;28;86744;-81
2021/01/09 16:10:58;;;;;;;29.10;13.07;;;;;;;;;;4969503;28;86937;-81
2021/01/09 16:13:24;;;;;;;25.50;13.93;;;1.10;75.20;;;;;;4968319;28;87585;-81
2021/01/09 16:15:51;;;;;;;20.48;12.93;;;1.10;77.50;;;;;;4963143;28;86973;-81
2021/01/09 16:18:18;;;;;;;16.00;9.45;;;1.10;77.10;;;;;;4966720;28;87312;-81
2021/01/09 16:20:44;;;;;;;15.52;8.85;;;0.80;77.00;;;;;;4965725;28;87029;-81
2021/01/09 16:23:11;;;;;;;16.20;9.68;;;0.90;77.30;;;;;;4947981;28;87054;-82
2021/01/09 16:25:37;;;;;;;22.90;12.02;;;0.80;77.90;;;;;;4970493;28;86742;-81
2021/01/09 16:28:07;;;;;;;17.67;11.75;;;0.80;79.50;;;;;;4964991;28;86946;-82
2021/01/09 16:30:34;;;;;;;19.80;11.93;;;0.60;78.70;;;;;;4966375;28;87523;-81
2021/01/09 16:32:59;;;;;;;18.05;11.70;;;0.60;79.10;;;;;;4962118;28;86687;-81
2021/01/09 16:35:26;;;;;;;19.90;11.55;;;0.50;80.10;;;;;;4963637;28;86623;-81
2021/01/09 16:37:52;;;;;;;26.38;12.70;;;;;;;;;;4965964;28;88240;-81
2021/01/09 16:40:19;;;;;;;40.08;16.08;;;;;;;;;;4960287;28;88402;-81
2021/01/09 16:42:45;;;;;;;59.92;21.15;;;0.50;80.60;;;;;;4959525;28;87005;-82
2021/01/09 16:45:12;;;;;;;37.83;15.57;;;0.50;80.30;;;;;;4965920;28;87033;-79
2021/01/09 16:47:48;;;;;;;28.27;12.00;;;0.40;80.50;;;;;;4967017;28;87540;-83
2021/01/09 16:50:15;;;;;;;39.20;14.90;;;0.50;81.70;;;;;;4958953;28;87529;-82
2021/01/09 16:52:44;;;;;;;31.98;14.70;;;0.30;81.30;;;;;;4968364;28;86844;-82
2021/01/09 16:55:12;;;;;;;23.58;12.68;;;0.30;82.10;;;;;;4966912;28;86200;-80
2021/01/09 16:57:39;;;;;;;22.42;11.30;;;0.30;82.30;;;;;;4977118;28;86983;-82
2021/01/09 17:00:10;;;;;;;17.40;10.38;;;0.20;82.70;;;;;;4977188;28;87366;-81